sensor_id;sensor_type;location;lat;lon;timestamp;P1;durP1;ratioP1;P2;durP2;ratioP2
25854;SDS011;13680;49.936;11.344;2023-06-22T00:02:15;13.00;;;11.38;;
25854;SDS011;13680;49.936;11.344;2023-06-22T00:04:40;13.45;;;11.02;;
25854;SDS011;13680;49.936;11.344;2023-06-22T00:07:06;14.35;;;11.02;;
25854;SDS011;13680;49.936;11.344;2023-06-22T00:09:32;13.85;;;11.13;;
25854;SDS011;13680;49.936;11.344;2023-06-22T00:11:58;13.30;;;10.30;;
25854;SDS011;13680;49.936;11.344;2023-06-22T00:14:23;11.60;;;10.32;;
25854;SDS011;13680;49.936;11.344;2023-06-22T00:16:49;14.88;;;10.93;;
25854;SDS011;13680;49.936;11.344;2023-06-22T00:19:15;14.27;;;11.13;;
25854;SDS011;13680;49.936;11.344;2023-06-22T00:21:40;16.13;;;11.88;;
25854;SDS011;13680;49.936;11.344;2023-06-22T00:24:07;16.15;;;11.13;;
25854;SDS011;13680;49.936;11.344;2023-06-22T00:26:32;15.52;;;12.10;;
25854;SDS011;13680;49.936;11.344;2023-06-22T00:28:58;15.68;;;12.73;;
25854;SDS011;13680;49.936;11.344;2023-06-22T00:31:23;17.13;;;11.73;;
25854;SDS011;13680;49.936;11.344;2023-06-22T00:33:48;14.70;;;12.10;;
25854;SDS011;13680;49.936;11.344;2023-06-22T00:36:15;15.15;;;12.10;;
25854;SDS011;13680;49.936;11.344;2023-06-22T00:38:42;15.13;;;11.38;;
25854;SDS011;13680;49.936;11.344;2023-06-22T00:41:08;15.23;;;11.57;;
25854;SDS011;13680;49.936;11.344;2023-06-22T00:43:33;16.73;;;11.10;;
25854;SDS011;13680;49.936;11.344;2023-06-22T00:45:59;16.45;;;11.60;;
25854;SDS011;13680;49.936;11.344;2023-06-22T00:48:24;16.63;;;11.15;;
25854;SDS011;13680;49.936;11.344;2023-06-22T00:50:50;17.20;;;11.63;;
25854;SDS011;13680;49.936;11.344;2023-06-22T00:53:18;12.70;;;11.10;;
25854;SDS011;13680;49.936;11.344;2023-06-22T00:55:45;14.35;;;12.05;;
25854;SDS011;13680;49.936;11.344;2023-06-22T00:58:12;14.48;;;11.00;;
25854;SDS011;13680;49.936;11.344;2023-06-22T01:00:41;15.55;;;12.10;;
25854;SDS011;13680;49.936;11.344;2023-06-22T01:03:07;17.27;;;12.07;;
25854;SDS011;13680;49.936;11.344;2023-06-22T01:05:36;15.07;;;11.95;;
25854;SDS011;13680;49.936;11.344;2023-06-22T01:08:15;13.90;;;11.38;;
25854;SDS011;13680;49.936;11.344;2023-06-22T01:16:33;16.08;;;12.50;;
25854;SDS011;13680;49.936;11.344;2023-06-22T01:19:01;16.17;;;11.15;;
25854;SDS011;13680;49.936;11.344;2023-06-22T01:21:34;15.27;;;11.43;;
25854;SDS011;13680;49.936;11.344;2023-06-22T01:29:22;18.73;;;10.93;;
25854;SDS011;13680;49.936;11.344;2023-06-22T01:31:49;14.35;;;10.55;;
25854;SDS011;13680;49.936;11.344;2023-06-22T01:34:16;18.58;;;11.00;;
25854;SDS011;13680;49.936;11.344;2023-06-22T01:36:42;13.68;;;10.82;;
25854;SDS011;13680;49.936;11.344;2023-06-22T01:39:08;25.25;;;10.88;;
25854;SDS011;13680;49.936;11.344;2023-06-22T01:41:35;17.17;;;10.82;;
25854;SDS011;13680;49.936;11.344;2023-06-22T01:44:05;12.98;;;10.20;;
25854;SDS011;13680;49.936;11.344;2023-06-22T01:46:33;14.32;;;10.70;;
25854;SDS011;13680;49.936;11.344;2023-06-22T01:49:00;16.65;;;10.57;;
25854;SDS011;13680;49.936;11.344;2023-06-22T01:51:27;15.52;;;10.85;;
25854;SDS011;13680;49.936;11.344;2023-06-22T01:53:52;12.93;;;10.68;;
25854;SDS011;13680;49.936;11.344;2023-06-22T01:56:18;14.52;;;11.27;;
25854;SDS011;13680;49.936;11.344;2023-06-22T01:58:49;14.27;;;11.55;;
25854;SDS011;13680;49.936;11.344;2023-06-22T02:01:31;17.27;;;13.60;;
25854;SDS011;13680;49.936;11.344;2023-06-22T02:04:13;15.13;;;12.80;;
25854;SDS011;13680;49.936;11.344;2023-06-22T02:06:45;13.88;;;11.13;;
25854;SDS011;13680;49.936;11.344;2023-06-22T02:09:14;16.17;;;10.13;;
25854;SDS011;13680;49.936;11.344;2023-06-22T02:11:42;18.40;;;12.43;;
25854;SDS011;13680;49.936;11.344;2023-06-22T02:14:10;17.98;;;11.68;;
25854;SDS011;13680;49.936;11.344;2023-06-22T02:16:38;16.88;;;12.70;;
25854;SDS011;13680;49.936;11.344;2023-06-22T02:19:03;22.58;;;11.27;;
25854;SDS011;13680;49.936;11.344;2023-06-22T02:21:29;17.33;;;11.00;;
25854;SDS011;13680;49.936;11.344;2023-06-22T02:23:56;16.38;;;11.48;;
25854;SDS011;13680;49.936;11.344;2023-06-22T02:26:21;20.17;;;12.70;;
25854;SDS011;13680;49.936;11.344;2023-06-22T02:28:48;20.65;;;12.73;;
25854;SDS011;13680;49.936;11.344;2023-06-22T02:31:13;22.02;;;12.15;;
25854;SDS011;13680;49.936;11.344;2023-06-22T02:33:39;17.75;;;12.98;;
25854;SDS011;13680;49.936;11.344;2023-06-22T02:36:04;13.88;;;11.80;;
25854;SDS011;13680;49.936;11.344;2023-06-22T02:38:30;16.67;;;11.65;;
25854;SDS011;13680;49.936;11.344;2023-06-22T02:40:58;14.10;;;11.27;;
25854;SDS011;13680;49.936;11.344;2023-06-22T02:43:24;17.23;;;12.23;;
25854;SDS011;13680;49.936;11.344;2023-06-22T02:45:50;17.52;;;11.48;;
25854;SDS011;13680;49.936;11.344;2023-06-22T02:48:16;23.33;;;11.90;;
25854;SDS011;13680;49.936;11.344;2023-06-22T02:50:41;17.30;;;12.45;;
25854;SDS011;13680;49.936;11.344;2023-06-22T02:53:06;20.35;;;12.68;;
25854;SDS011;13680;49.936;11.344;2023-06-22T02:55:32;15.07;;;12.38;;
25854;SDS011;13680;49.936;11.344;2023-06-22T02:57:57;18.02;;;12.75;;
25854;SDS011;13680;49.936;11.344;2023-06-22T03:00:24;16.00;;;12.07;;
25854;SDS011;13680;49.936;11.344;2023-06-22T03:02:55;14.98;;;11.98;;
25854;SDS011;13680;49.936;11.344;2023-06-22T03:05:22;17.75;;;13.68;;
25854;SDS011;13680;49.936;11.344;2023-06-22T03:07:48;20.63;;;15.75;;
25854;SDS011;13680;49.936;11.344;2023-06-22T03:10:13;21.45;;;17.13;;
25854;SDS011;13680;49.936;11.344;2023-06-22T03:12:40;19.38;;;16.75;;
25854;SDS011;13680;49.936;11.344;2023-06-22T03:15:07;24.42;;;17.30;;
25854;SDS011;13680;49.936;11.344;2023-06-22T03:17:34;20.85;;;17.48;;
25854;SDS011;13680;49.936;11.344;2023-06-22T03:20:01;20.83;;;16.02;;
25854;SDS011;13680;49.936;11.344;2023-06-22T03:22:33;25.02;;;17.88;;
25854;SDS011;13680;49.936;11.344;2023-06-22T03:24:59;22.35;;;18.02;;
25854;SDS011;13680;49.936;11.344;2023-06-22T03:27:24;24.48;;;17.42;;
25854;SDS011;13680;49.936;11.344;2023-06-22T03:29:49;21.02;;;16.40;;
25854;SDS011;13680;49.936;11.344;2023-06-22T03:32:15;22.08;;;17.20;;
25854;SDS011;13680;49.936;11.344;2023-06-22T03:34:40;24.17;;;17.15;;
25854;SDS011;13680;49.936;11.344;2023-06-22T03:37:06;21.67;;;17.67;;
25854;SDS011;13680;49.936;11.344;2023-06-22T03:39:31;24.75;;;17.20;;
25854;SDS011;13680;49.936;11.344;2023-06-22T03:41:57;19.67;;;16.17;;
25854;SDS011;13680;49.936;11.344;2023-06-22T03:44:22;23.08;;;17.42;;
25854;SDS011;13680;49.936;11.344;2023-06-22T03:46:47;20.10;;;16.30;;
25854;SDS011;13680;49.936;11.344;2023-06-22T03:49:12;25.35;;;16.92;;
25854;SDS011;13680;49.936;11.344;2023-06-22T03:51:38;21.38;;;16.17;;
25854;SDS011;13680;49.936;11.344;2023-06-22T03:54:04;23.52;;;16.23;;
25854;SDS011;13680;49.936;11.344;2023-06-22T03:56:29;20.55;;;16.50;;
25854;SDS011;13680;49.936;11.344;2023-06-22T03:58:54;22.50;;;16.80;;
25854;SDS011;13680;49.936;11.344;2023-06-22T04:01:20;26.85;;;18.02;;
25854;SDS011;13680;49.936;11.344;2023-06-22T04:03:45;21.13;;;17.48;;
25854;SDS011;13680;49.936;11.344;2023-06-22T04:06:13;20.05;;;16.33;;
25854;SDS011;13680;49.936;11.344;2023-06-22T04:08:38;20.83;;;17.05;;
25854;SDS011;13680;49.936;11.344;2023-06-22T04:11:03;21.08;;;16.80;;
25854;SDS011;13680;49.936;11.344;2023-06-22T04:13:30;20.73;;;16.50;;
25854;SDS011;13680;49.936;11.344;2023-06-22T04:15:55;20.58;;;16.98;;
25854;SDS011;13680;49.936;11.344;2023-06-22T04:18:20;19.98;;;17.58;;
25854;SDS011;13680;49.936;11.344;2023-06-22T04:20:45;22.38;;;17.67;;
25854;SDS011;13680;49.936;11.344;2023-06-22T04:23:12;22.08;;;16.77;;
25854;SDS011;13680;49.936;11.344;2023-06-22T04:25:37;24.17;;;18.05;;
25854;SDS011;13680;49.936;11.344;2023-06-22T04:28:02;27.35;;;18.83;;
25854;SDS011;13680;49.936;11.344;2023-06-22T04:30:29;24.40;;;18.55;;
25854;SDS011;13680;49.936;11.344;2023-06-22T04:32:56;23.08;;;17.73;;
25854;SDS011;13680;49.936;11.344;2023-06-22T04:35:22;20.17;;;16.92;;
25854;SDS011;13680;49.936;11.344;2023-06-22T04:37:48;22.45;;;17.20;;
25854;SDS011;13680;49.936;11.344;2023-06-22T04:40:14;20.45;;;16.10;;
25854;SDS011;13680;49.936;11.344;2023-06-22T04:42:40;20.88;;;16.20;;
25854;SDS011;13680;49.936;11.344;2023-06-22T04:45:05;19.67;;;16.38;;
25854;SDS011;13680;49.936;11.344;2023-06-22T04:47:31;23.70;;;15.63;;
25854;SDS011;13680;49.936;11.344;2023-06-22T04:49:56;21.20;;;15.63;;
25854;SDS011;13680;49.936;11.344;2023-06-22T04:52:21;19.30;;;14.70;;
25854;SDS011;13680;49.936;11.344;2023-06-22T04:54:47;21.92;;;16.38;;
25854;SDS011;13680;49.936;11.344;2023-06-22T04:57:13;18.27;;;15.00;;
25854;SDS011;13680;49.936;11.344;2023-06-22T04:59:38;21.45;;;15.98;;
25854;SDS011;13680;49.936;11.344;2023-06-22T05:02:06;21.50;;;16.17;;
25854;SDS011;13680;49.936;11.344;2023-06-22T05:04:32;19.63;;;15.27;;
25854;SDS011;13680;49.936;11.344;2023-06-22T05:07:01;22.08;;;15.73;;
25854;SDS011;13680;49.936;11.344;2023-06-22T05:09:27;18.42;;;14.90;;
25854;SDS011;13680;49.936;11.344;2023-06-22T05:11:54;20.75;;;15.00;;
25854;SDS011;13680;49.936;11.344;2023-06-22T05:14:19;17.90;;;14.63;;
25854;SDS011;13680;49.936;11.344;2023-06-22T05:16:45;19.38;;;15.05;;
25854;SDS011;13680;49.936;11.344;2023-06-22T05:19:11;18.80;;;15.15;;
25854;SDS011;13680;49.936;11.344;2023-06-22T05:21:37;18.65;;;14.73;;
25854;SDS011;13680;49.936;11.344;2023-06-22T05:24:03;18.20;;;15.40;;
25854;SDS011;13680;49.936;11.344;2023-06-22T05:26:30;17.67;;;14.20;;
25854;SDS011;13680;49.936;11.344;2023-06-22T05:28:56;17.02;;;14.60;;
25854;SDS011;13680;49.936;11.344;2023-06-22T05:31:22;17.38;;;13.07;;
25854;SDS011;13680;49.936;11.344;2023-06-22T05:33:48;15.25;;;12.38;;
25854;SDS011;13680;49.936;11.344;2023-06-22T05:36:14;16.35;;;12.43;;
25854;SDS011;13680;49.936;11.344;2023-06-22T05:38:40;13.48;;;11.20;;
25854;SDS011;13680;49.936;11.344;2023-06-22T05:41:07;14.63;;;11.30;;
25854;SDS011;13680;49.936;11.344;2023-06-22T05:43:33;11.88;;;9.93;;
25854;SDS011;13680;49.936;11.344;2023-06-22T05:45:59;13.48;;;10.18;;
25854;SDS011;13680;49.936;11.344;2023-06-22T05:48:25;17.27;;;10.65;;
25854;SDS011;13680;49.936;11.344;2023-06-22T05:50:50;12.60;;;10.07;;
25854;SDS011;13680;49.936;11.344;2023-06-22T05:53:15;12.07;;;9.75;;
25854;SDS011;13680;49.936;11.344;2023-06-22T05:55:41;14.55;;;10.05;;
25854;SDS011;13680;49.936;11.344;2023-06-22T05:58:07;11.05;;;9.55;;
25854;SDS011;13680;49.936;11.344;2023-06-22T06:00:33;12.38;;;9.45;;
25854;SDS011;13680;49.936;11.344;2023-06-22T06:02:58;12.30;;;9.20;;
25854;SDS011;13680;49.936;11.344;2023-06-22T06:05:28;12.05;;;8.75;;
25854;SDS011;13680;49.936;11.344;2023-06-22T06:07:54;12.15;;;8.93;;
25854;SDS011;13680;49.936;11.344;2023-06-22T06:10:19;15.45;;;8.57;;
25854;SDS011;13680;49.936;11.344;2023-06-22T06:12:44;11.07;;;8.57;;
25854;SDS011;13680;49.936;11.344;2023-06-22T06:15:10;11.98;;;8.77;;
25854;SDS011;13680;49.936;11.344;2023-06-22T06:17:35;17.00;;;8.73;;
25854;SDS011;13680;49.936;11.344;2023-06-22T06:20:00;11.90;;;8.77;;
25854;SDS011;13680;49.936;11.344;2023-06-22T06:22:26;11.30;;;8.63;;
25854;SDS011;13680;49.936;11.344;2023-06-22T06:24:51;9.77;;;7.85;;
25854;SDS011;13680;49.936;11.344;2023-06-22T06:27:16;13.32;;;8.38;;
25854;SDS011;13680;49.936;11.344;2023-06-22T06:29:43;11.00;;;7.38;;
25854;SDS011;13680;49.936;11.344;2023-06-22T06:32:10;8.63;;;7.47;;
25854;SDS011;13680;49.936;11.344;2023-06-22T06:34:36;9.00;;;7.38;;
25854;SDS011;13680;49.936;11.344;2023-06-22T06:37:01;12.02;;;7.65;;
25854;SDS011;13680;49.936;11.344;2023-06-22T06:39:27;10.00;;;7.32;;
25854;SDS011;13680;49.936;11.344;2023-06-22T06:41:52;9.13;;;7.45;;
25854;SDS011;13680;49.936;11.344;2023-06-22T06:44:17;8.68;;;7.68;;
25854;SDS011;13680;49.936;11.344;2023-06-22T06:46:42;8.77;;;7.20;;
25854;SDS011;13680;49.936;11.344;2023-06-22T06:49:08;13.18;;;7.43;;
25854;SDS011;13680;49.936;11.344;2023-06-22T06:51:33;13.50;;;7.10;;
25854;SDS011;13680;49.936;11.344;2023-06-22T06:53:58;14.18;;;7.47;;
25854;SDS011;13680;49.936;11.344;2023-06-22T06:56:24;9.82;;;7.10;;
25854;SDS011;13680;49.936;11.344;2023-06-22T06:58:52;9.32;;;7.22;;
25854;SDS011;13680;49.936;11.344;2023-06-22T07:01:18;10.93;;;7.18;;
25854;SDS011;13680;49.936;11.344;2023-06-22T07:03:44;8.52;;;6.82;;
25854;SDS011;13680;49.936;11.344;2023-06-22T07:06:10;8.45;;;6.70;;
25854;SDS011;13680;49.936;11.344;2023-06-22T07:08:35;14.25;;;6.32;;
25854;SDS011;13680;49.936;11.344;2023-06-22T07:11:01;10.93;;;6.57;;
25854;SDS011;13680;49.936;11.344;2023-06-22T07:13:27;9.45;;;6.57;;
25854;SDS011;13680;49.936;11.344;2023-06-22T07:15:52;10.27;;;7.07;;
25854;SDS011;13680;49.936;11.344;2023-06-22T07:18:18;9.90;;;7.07;;
25854;SDS011;13680;49.936;11.344;2023-06-22T07:20:43;14.90;;;7.10;;
25854;SDS011;13680;49.936;11.344;2023-06-22T07:23:08;7.32;;;5.90;;
25854;SDS011;13680;49.936;11.344;2023-06-22T07:25:34;9.15;;;6.07;;
25854;SDS011;13680;49.936;11.344;2023-06-22T07:28:00;10.38;;;6.38;;
25854;SDS011;13680;49.936;11.344;2023-06-22T07:30:27;9.98;;;6.53;;
25854;SDS011;13680;49.936;11.344;2023-06-22T07:32:53;8.80;;;6.30;;
25854;SDS011;13680;49.936;11.344;2023-06-22T07:35:19;7.72;;;6.20;;
25854;SDS011;13680;49.936;11.344;2023-06-22T07:37:44;9.73;;;6.55;;
25854;SDS011;13680;49.936;11.344;2023-06-22T07:40:09;9.45;;;6.05;;
25854;SDS011;13680;49.936;11.344;2023-06-22T07:42:35;10.85;;;6.35;;
25854;SDS011;13680;49.936;11.344;2023-06-22T07:45:02;12.00;;;6.55;;
25854;SDS011;13680;49.936;11.344;2023-06-22T07:47:28;10.75;;;7.13;;
25854;SDS011;13680;49.936;11.344;2023-06-22T07:49:54;7.68;;;6.05;;
25854;SDS011;13680;49.936;11.344;2023-06-22T07:52:22;10.80;;;6.28;;
25854;SDS011;13680;49.936;11.344;2023-06-22T07:54:48;10.35;;;6.03;;
25854;SDS011;13680;49.936;11.344;2023-06-22T07:57:13;10.15;;;5.75;;
25854;SDS011;13680;49.936;11.344;2023-06-22T07:59:39;6.88;;;5.43;;
25854;SDS011;13680;49.936;11.344;2023-06-22T08:02:04;8.15;;;5.40;;
25854;SDS011;13680;49.936;11.344;2023-06-22T08:04:30;6.60;;;5.32;;
25854;SDS011;13680;49.936;11.344;2023-06-22T08:06:58;7.97;;;5.72;;
25854;SDS011;13680;49.936;11.344;2023-06-22T08:09:24;10.10;;;5.93;;
25854;SDS011;13680;49.936;11.344;2023-06-22T08:11:49;8.70;;;5.28;;
25854;SDS011;13680;49.936;11.344;2023-06-22T08:14:15;8.30;;;5.75;;
25854;SDS011;13680;49.936;11.344;2023-06-22T08:16:41;9.30;;;5.03;;
25854;SDS011;13680;49.936;11.344;2023-06-22T08:19:06;10.68;;;5.50;;
25854;SDS011;13680;49.936;11.344;2023-06-22T08:21:32;8.38;;;5.60;;
25854;SDS011;13680;49.936;11.344;2023-06-22T08:23:57;8.40;;;5.70;;
25854;SDS011;13680;49.936;11.344;2023-06-22T08:26:22;9.02;;;5.40;;
25854;SDS011;13680;49.936;11.344;2023-06-22T08:28:48;7.35;;;5.65;;
25854;SDS011;13680;49.936;11.344;2023-06-22T08:31:14;7.45;;;5.38;;
25854;SDS011;13680;49.936;11.344;2023-06-22T08:33:39;10.98;;;6.15;;
25854;SDS011;13680;49.936;11.344;2023-06-22T08:36:04;7.25;;;5.50;;
25854;SDS011;13680;49.936;11.344;2023-06-22T08:38:31;9.80;;;5.47;;
25854;SDS011;13680;49.936;11.344;2023-06-22T08:40:57;6.53;;;5.18;;
25854;SDS011;13680;49.936;11.344;2023-06-22T08:43:22;6.53;;;5.40;;
25854;SDS011;13680;49.936;11.344;2023-06-22T08:45:47;7.50;;;5.60;;
25854;SDS011;13680;49.936;11.344;2023-06-22T08:48:13;10.95;;;5.93;;
25854;SDS011;13680;49.936;11.344;2023-06-22T08:50:39;10.77;;;5.53;;
25854;SDS011;13680;49.936;11.344;2023-06-22T08:53:05;8.68;;;5.40;;
25854;SDS011;13680;49.936;11.344;2023-06-22T08:55:31;10.38;;;5.47;;
25854;SDS011;13680;49.936;11.344;2023-06-22T08:57:56;6.18;;;4.95;;
25854;SDS011;13680;49.936;11.344;2023-06-22T09:00:21;7.63;;;5.13;;
25854;SDS011;13680;49.936;11.344;2023-06-22T09:02:47;7.13;;;5.25;;
25854;SDS011;13680;49.936;11.344;2023-06-22T09:05:13;5.88;;;5.28;;
25854;SDS011;13680;49.936;11.344;2023-06-22T09:07:38;7.32;;;5.13;;
25854;SDS011;13680;49.936;11.344;2023-06-22T09:10:04;6.00;;;5.28;;
25854;SDS011;13680;49.936;11.344;2023-06-22T09:12:30;8.48;;;5.20;;
25854;SDS011;13680;49.936;11.344;2023-06-22T09:14:57;7.07;;;5.07;;
25854;SDS011;13680;49.936;11.344;2023-06-22T09:17:25;6.40;;;5.47;;
25854;SDS011;13680;49.936;11.344;2023-06-22T09:19:51;6.32;;;5.22;;
25854;SDS011;13680;49.936;11.344;2023-06-22T09:22:16;8.48;;;5.82;;
25854;SDS011;13680;49.936;11.344;2023-06-22T09:24:41;8.40;;;5.63;;
25854;SDS011;13680;49.936;11.344;2023-06-22T09:27:07;6.03;;;5.40;;
25854;SDS011;13680;49.936;11.344;2023-06-22T09:29:32;9.73;;;4.90;;
25854;SDS011;13680;49.936;11.344;2023-06-22T09:32:01;8.98;;;4.80;;
25854;SDS011;13680;49.936;11.344;2023-06-22T09:34:26;9.82;;;5.35;;
25854;SDS011;13680;49.936;11.344;2023-06-22T09:36:52;7.85;;;4.95;;
25854;SDS011;13680;49.936;11.344;2023-06-22T09:39:20;11.18;;;5.22;;
25854;SDS011;13680;49.936;11.344;2023-06-22T09:41:46;12.60;;;5.15;;
25854;SDS011;13680;49.936;11.344;2023-06-22T09:44:11;5.97;;;5.05;;
25854;SDS011;13680;49.936;11.344;2023-06-22T09:46:36;7.15;;;5.00;;
25854;SDS011;13680;49.936;11.344;2023-06-22T09:49:01;6.45;;;5.15;;
25854;SDS011;13680;49.936;11.344;2023-06-22T09:51:27;8.30;;;4.97;;
25854;SDS011;13680;49.936;11.344;2023-06-22T09:53:52;9.98;;;4.97;;
25854;SDS011;13680;49.936;11.344;2023-06-22T09:56:20;8.82;;;4.80;;
25854;SDS011;13680;49.936;11.344;2023-06-22T09:58:46;7.50;;;4.80;;
25854;SDS011;13680;49.936;11.344;2023-06-22T10:01:11;9.93;;;4.88;;
25854;SDS011;13680;49.936;11.344;2023-06-22T10:03:39;6.43;;;4.95;;
25854;SDS011;13680;49.936;11.344;2023-06-22T10:06:06;8.73;;;4.78;;
25854;SDS011;13680;49.936;11.344;2023-06-22T10:08:31;10.57;;;4.88;;
25854;SDS011;13680;49.936;11.344;2023-06-22T10:10:57;10.20;;;4.60;;
25854;SDS011;13680;49.936;11.344;2023-06-22T10:13:22;7.20;;;4.30;;
25854;SDS011;13680;49.936;11.344;2023-06-22T10:15:47;6.45;;;4.70;;
25854;SDS011;13680;49.936;11.344;2023-06-22T10:18:16;6.22;;;4.60;;
25854;SDS011;13680;49.936;11.344;2023-06-22T10:20:42;10.75;;;4.95;;
25854;SDS011;13680;49.936;11.344;2023-06-22T10:23:08;7.70;;;4.25;;
25854;SDS011;13680;49.936;11.344;2023-06-22T10:25:33;8.90;;;4.50;;
25854;SDS011;13680;49.936;11.344;2023-06-22T10:27:58;10.20;;;4.82;;
25854;SDS011;13680;49.936;11.344;2023-06-22T10:30:24;8.43;;;4.60;;
25854;SDS011;13680;49.936;11.344;2023-06-22T10:32:49;8.18;;;4.90;;
25854;SDS011;13680;49.936;11.344;2023-06-22T10:35:15;8.73;;;4.82;;
25854;SDS011;13680;49.936;11.344;2023-06-22T10:37:44;7.93;;;4.93;;
25854;SDS011;13680;49.936;11.344;2023-06-22T10:40:11;6.28;;;4.30;;
25854;SDS011;13680;49.936;11.344;2023-06-22T10:42:41;6.55;;;4.53;;
25854;SDS011;13680;49.936;11.344;2023-06-22T10:45:06;6.00;;;4.57;;
25854;SDS011;13680;49.936;11.344;2023-06-22T10:47:33;7.35;;;4.03;;
25854;SDS011;13680;49.936;11.344;2023-06-22T10:49:58;6.60;;;4.45;;
25854;SDS011;13680;49.936;11.344;2023-06-22T10:52:24;7.38;;;4.47;;
25854;SDS011;13680;49.936;11.344;2023-06-22T10:54:49;5.07;;;4.43;;
25854;SDS011;13680;49.936;11.344;2023-06-22T10:57:14;6.78;;;4.47;;
25854;SDS011;13680;49.936;11.344;2023-06-22T10:59:40;5.72;;;4.00;;
25854;SDS011;13680;49.936;11.344;2023-06-22T11:02:05;4.38;;;3.97;;
25854;SDS011;13680;49.936;11.344;2023-06-22T11:04:30;9.15;;;4.75;;
25854;SDS011;13680;49.936;11.344;2023-06-22T11:06:56;6.07;;;3.83;;
25854;SDS011;13680;49.936;11.344;2023-06-22T11:09:21;9.05;;;4.38;;
25854;SDS011;13680;49.936;11.344;2023-06-22T11:11:47;9.65;;;4.57;;
25854;SDS011;13680;49.936;11.344;2023-06-22T11:14:14;20.00;;;4.25;;
25854;SDS011;13680;49.936;11.344;2023-06-22T11:16:39;5.20;;;4.22;;
25854;SDS011;13680;49.936;11.344;2023-06-22T11:19:05;6.35;;;4.15;;
25854;SDS011;13680;49.936;11.344;2023-06-22T11:21:30;6.10;;;4.00;;
25854;SDS011;13680;49.936;11.344;2023-06-22T11:23:56;5.13;;;4.05;;
25854;SDS011;13680;49.936;11.344;2023-06-22T11:26:22;5.18;;;4.15;;
25854;SDS011;13680;49.936;11.344;2023-06-22T11:28:47;8.15;;;4.40;;
25854;SDS011;13680;49.936;11.344;2023-06-22T11:31:13;10.20;;;4.90;;
25854;SDS011;13680;49.936;11.344;2023-06-22T11:33:39;11.73;;;4.30;;
25854;SDS011;13680;49.936;11.344;2023-06-22T11:36:04;5.53;;;4.00;;
25854;SDS011;13680;49.936;11.344;2023-06-22T11:38:30;8.18;;;3.92;;
25854;SDS011;13680;49.936;11.344;2023-06-22T11:40:55;6.18;;;4.28;;
25854;SDS011;13680;49.936;11.344;2023-06-22T11:43:23;4.95;;;4.10;;
25854;SDS011;13680;49.936;11.344;2023-06-22T11:45:48;11.07;;;4.78;;
25854;SDS011;13680;49.936;11.344;2023-06-22T11:48:14;12.95;;;4.32;;
25854;SDS011;13680;49.936;11.344;2023-06-22T11:50:39;8.52;;;4.45;;
25854;SDS011;13680;49.936;11.344;2023-06-22T11:53:04;7.22;;;3.63;;
25854;SDS011;13680;49.936;11.344;2023-06-22T11:55:30;6.40;;;4.03;;
25854;SDS011;13680;49.936;11.344;2023-06-22T11:57:55;6.65;;;3.97;;
25854;SDS011;13680;49.936;11.344;2023-06-22T12:00:24;6.88;;;4.25;;
25854;SDS011;13680;49.936;11.344;2023-06-22T12:02:50;8.20;;;4.18;;
25854;SDS011;13680;49.936;11.344;2023-06-22T12:05:17;7.80;;;4.30;;
25854;SDS011;13680;49.936;11.344;2023-06-22T12:07:44;7.43;;;4.45;;
25854;SDS011;13680;49.936;11.344;2023-06-22T12:10:09;11.20;;;4.28;;
25854;SDS011;13680;49.936;11.344;2023-06-22T12:12:35;7.30;;;4.20;;
25854;SDS011;13680;49.936;11.344;2023-06-22T12:15:00;8.90;;;4.45;;
25854;SDS011;13680;49.936;11.344;2023-06-22T12:17:28;11.27;;;4.40;;
25854;SDS011;13680;49.936;11.344;2023-06-22T12:19:54;7.75;;;4.15;;
25854;SDS011;13680;49.936;11.344;2023-06-22T12:22:19;5.80;;;4.07;;
25854;SDS011;13680;49.936;11.344;2023-06-22T12:24:45;7.80;;;4.13;;
25854;SDS011;13680;49.936;11.344;2023-06-22T12:27:10;5.83;;;3.97;;
25854;SDS011;13680;49.936;11.344;2023-06-22T12:29:35;6.15;;;3.65;;
25854;SDS011;13680;49.936;11.344;2023-06-22T12:32:00;10.37;;;3.93;;
25854;SDS011;13680;49.936;11.344;2023-06-22T12:34:26;8.43;;;4.10;;
25854;SDS011;13680;49.936;11.344;2023-06-22T12:36:51;6.70;;;4.57;;
25854;SDS011;13680;49.936;11.344;2023-06-22T12:39:19;8.57;;;4.80;;
25854;SDS011;13680;49.936;11.344;2023-06-22T12:41:44;11.82;;;4.63;;
25854;SDS011;13680;49.936;11.344;2023-06-22T12:44:09;9.25;;;4.45;;
25854;SDS011;13680;49.936;11.344;2023-06-22T12:46:35;12.45;;;4.78;;
25854;SDS011;13680;49.936;11.344;2023-06-22T12:49:02;11.60;;;4.93;;
25854;SDS011;13680;49.936;11.344;2023-06-22T12:51:29;9.52;;;4.07;;
25854;SDS011;13680;49.936;11.344;2023-06-22T12:53:55;12.52;;;5.13;;
25854;SDS011;13680;49.936;11.344;2023-06-22T12:56:20;11.10;;;4.55;;
25854;SDS011;13680;49.936;11.344;2023-06-22T12:58:45;11.00;;;4.23;;
25854;SDS011;13680;49.936;11.344;2023-06-22T13:01:11;9.07;;;4.45;;
25854;SDS011;13680;49.936;11.344;2023-06-22T13:03:36;12.60;;;4.45;;
25854;SDS011;13680;49.936;11.344;2023-06-22T13:06:02;9.13;;;4.38;;
25854;SDS011;13680;49.936;11.344;2023-06-22T13:08:28;10.50;;;4.63;;
25854;SDS011;13680;49.936;11.344;2023-06-22T13:10:54;9.93;;;4.60;;
25854;SDS011;13680;49.936;11.344;2023-06-22T13:13:23;13.13;;;4.15;;
25854;SDS011;13680;49.936;11.344;2023-06-22T13:15:49;14.65;;;4.50;;
25854;SDS011;13680;49.936;11.344;2023-06-22T13:18:15;13.25;;;4.85;;
25854;SDS011;13680;49.936;11.344;2023-06-22T13:20:40;8.98;;;4.25;;
25854;SDS011;13680;49.936;11.344;2023-06-22T13:23:05;7.97;;;4.20;;
25854;SDS011;13680;49.936;11.344;2023-06-22T13:25:31;11.30;;;4.40;;
25854;SDS011;13680;49.936;11.344;2023-06-22T13:27:56;11.30;;;4.73;;
25854;SDS011;13680;49.936;11.344;2023-06-22T13:30:21;13.25;;;4.32;;
25854;SDS011;13680;49.936;11.344;2023-06-22T13:32:47;8.18;;;4.78;;
25854;SDS011;13680;49.936;11.344;2023-06-22T13:35:12;10.05;;;4.50;;
25854;SDS011;13680;49.936;11.344;2023-06-22T13:37:37;9.20;;;4.78;;
25854;SDS011;13680;49.936;11.344;2023-06-22T13:40:04;10.00;;;4.55;;
25854;SDS011;13680;49.936;11.344;2023-06-22T13:42:31;16.20;;;4.85;;
25854;SDS011;13680;49.936;11.344;2023-06-22T13:44:57;6.80;;;4.28;;
25854;SDS011;13680;49.936;11.344;2023-06-22T13:47:22;8.57;;;4.35;;
25854;SDS011;13680;49.936;11.344;2023-06-22T13:49:48;10.32;;;4.68;;
25854;SDS011;13680;49.936;11.344;2023-06-22T13:52:13;11.00;;;4.38;;
25854;SDS011;13680;49.936;11.344;2023-06-22T13:54:39;14.32;;;4.60;;
25854;SDS011;13680;49.936;11.344;2023-06-22T13:57:04;10.20;;;4.55;;
25854;SDS011;13680;49.936;11.344;2023-06-22T13:59:30;11.95;;;4.40;;
25854;SDS011;13680;49.936;11.344;2023-06-22T14:01:55;11.53;;;4.30;;
25854;SDS011;13680;49.936;11.344;2023-06-22T14:04:22;11.35;;;4.68;;
25854;SDS011;13680;49.936;11.344;2023-06-22T14:06:48;12.80;;;4.63;;
25854;SDS011;13680;49.936;11.344;2023-06-22T14:09:13;9.77;;;4.43;;
25854;SDS011;13680;49.936;11.344;2023-06-22T14:11:38;8.07;;;4.00;;
25854;SDS011;13680;49.936;11.344;2023-06-22T14:14:04;9.52;;;4.38;;
25854;SDS011;13680;49.936;11.344;2023-06-22T14:16:29;15.23;;;5.03;;
25854;SDS011;13680;49.936;11.344;2023-06-22T14:18:54;11.87;;;4.27;;
25854;SDS011;13680;49.936;11.344;2023-06-22T14:21:19;9.53;;;4.33;;
25854;SDS011;13680;49.936;11.344;2023-06-22T14:23:45;15.73;;;4.50;;
25854;SDS011;13680;49.936;11.344;2023-06-22T14:26:14;15.40;;;4.75;;